Time;durP1;ratioP1;P1;durP2;ratioP2;P2;SDS_P1;SDS_P2;PMS_P1;PMS_P2;Temp;Humidity;BMP_temperature;BMP_pressure;BME280_temperature;BME280_humidity;BME280_pressure;Samples;Min_cycle;Max_cycle;Signal;HPM_P1;HPM_P2
2023/01/22 00:01:37;;;;;;;304.10;53.10;;;;;;;-17.37;69.41;100737.19;4903710;28;20058;-54
2023/01/22 00:04:08;;;;;;;163.20;42.72;;;;;;;-17.38;68.40;100735.41;4899388;28;20046;-54
2023/01/22 00:06:40;;;;;;;278.95;55.13;;;;;;;-17.32;67.99;100716.03;4884817;28;20116;-54
2023/01/22 00:09:10;;;;;;;48.25;15.18;;;;;;;-17.14;68.18;100727.91;4891510;28;20057;-53
2023/01/22 00:11:41;;;;;;;57.50;15.25;;;;;;;-16.77;68.79;100728.97;4892457;28;20059;-56
2023/01/22 00:14:13;;;;;;;279.20;58.13;;;;;;;-16.41;68.50;100728.31;4893369;28;20064;-53
2023/01/22 00:16:44;;;;;;;90.65;22.77;;;;;;;-16.37;67.80;100696.25;4892192;28;20075;-53
2023/01/22 00:19:16;;;;;;;30.80;11.80;;;;;;;-16.24;66.39;100740.84;4892395;28;20056;-54
2023/01/22 00:21:47;;;;;;;71.65;19.17;;;;;;;-16.09;66.32;100739.81;4892350;28;20053;-55
2023/01/22 00:24:20;;;;;;;235.43;46.10;;;;;;;-15.94;65.81;100727.03;4893802;28;20037;-55
2023/01/22 00:26:50;;;;;;;155.55;32.88;;;;;;;-15.85;64.93;100725.38;4893795;28;20048;-56
2023/01/22 00:29:23;;;;;;;28.58;12.10;;;;;;;-15.65;65.21;100715.59;4891707;28;20059;-55
2023/01/22 00:31:53;;;;;;;36.05;14.40;;;;;;;-15.29;65.59;100727.28;4892061;28;20864;-54
2023/01/22 00:34:24;;;;;;;22.70;10.13;;;;;;;-14.99;65.00;100713.31;4905680;28;20052;-57
2023/01/22 00:39:49;;;;;;;18.38;8.25;;;;;;;-14.74;62.95;100710.53;4890408;28;20064;-58
2023/01/22 00:42:19;;;;;;;121.32;28.08;;;;;;;-14.82;62.62;100718.22;4890420;28;20064;-58
2023/01/22 00:44:53;;;;;;;41.05;15.30;;;;;;;-14.97;61.61;100711.81;4900531;28;20056;-57
2023/01/22 00:47:29;;;;;;;41.78;12.73;;;;;;;-15.42;61.31;100714.38;4894677;28;21215;-58
2023/01/22 00:50:07;;;;;;;20.52;11.15;;;;;;;-15.52;62.82;100739.25;4892043;28;20135;-58
2023/01/22 00:52:50;;;;;;;16.52;7.10;;;;;;;-15.46;62.34;100732.34;4889155;28;20044;-58
2023/01/22 00:55:30;;;;;;;14.05;7.25;;;;;;;-15.42;62.53;100734.41;4891649;28;20052;-58
2023/01/22 00:58:21;;;;;;;12.52;6.25;;;;;;;-15.30;62.17;100740.56;4887405;28;20162;-58
2023/01/22 01:01:00;;;;;;;11.13;5.78;;;;;;;-15.63;62.18;100617.16;4831839;28;20424;-58
2023/01/22 01:03:37;;;;;;;14.27;6.03;;;;;;;-14.57;61.91;100733.88;4829424;28;20116;-58
2023/01/22 01:06:11;;;;;;;12.30;6.15;;;;;;;-14.13;62.32;100731.91;4840364;28;20563;-57
2023/01/22 01:08:43;;;;;;;16.40;7.45;;;;;;;-13.89;61.92;100716.34;4844072;28;20097;-58
2023/01/22 01:11:15;;;;;;;17.05;7.68;;;;;;;-13.70;61.85;100729.78;4837640;28;20066;-59
2023/01/22 01:13:46;;;;;;;7.80;4.68;;;;;;;-13.88;60.82;100733.19;4837025;28;20058;-59
2023/01/22 01:16:20;;;;;;;9.02;4.80;;;;;;;-13.91;61.32;100734.66;4836006;28;20053;-59
2023/01/22 01:18:50;;;;;;;4.38;2.78;;;;;;;-13.75;61.71;100736.00;4825718;28;20049;-59
2023/01/22 01:21:21;;;;;;;5.20;3.20;;;;;;;-13.68;61.86;100730.78;4836495;28;20057;-59
2023/01/22 01:23:51;;;;;;;2.92;2.72;;;;;;;-13.70;61.02;100724.75;4835523;28;20065;-59
2023/01/22 01:26:22;;;;;;;3.10;2.72;;;;;;;-13.72;61.13;100717.06;4836460;28;20264;-59
2023/01/22 01:28:53;;;;;;;5.05;3.03;;;;;;;-14.00;61.09;100648.50;4836481;28;20054;-59
2023/01/22 01:31:26;;;;;;;3.28;2.92;;;;;;;-13.45;61.40;100701.72;4836123;28;20551;-60
2023/01/22 01:33:57;;;;;;;2.97;2.70;;;;;;;-13.32;61.34;100709.56;4836263;28;20054;-59
2023/01/22 01:36:28;;;;;;;4.25;2.83;;;;;;;-13.32;61.22;100712.09;4832892;28;20051;-60
2023/01/22 01:39:17;;;;;;;3.05;2.78;;;;;;;-13.22;61.96;100707.03;4877699;28;20133;-60
2023/01/22 01:41:49;;;;;;;3.00;2.78;;;;;;;-13.16;61.67;100702.53;4897146;28;20125;-60
2023/01/22 01:44:21;;;;;;;2.95;2.72;;;;;;;-13.67;61.29;100628.66;4890357;28;20126;-60
2023/01/22 01:46:59;;;;;;;3.58;2.60;;;;;;;-13.41;61.18;100691.19;4891489;28;20084;-60
2023/01/22 01:49:33;;;;;;;2.70;2.50;;;;;;;-13.59;60.36;100668.75;4881069;28;20064;-60
2023/01/22 01:52:08;;;;;;;3.63;2.80;;;;;;;-13.79;60.54;100678.72;4891238;28;20052;-60
2023/01/22 01:54:42;;;;;;;3.28;2.47;;;;;;;-13.90;61.06;100690.38;4881343;28;20056;-60
2023/01/22 01:57:16;;;;;;;3.10;2.75;;;;;;;-13.86;61.56;100681.44;4890740;28;20430;-60
2023/01/22 01:59:49;;;;;;;3.00;2.55;;;;;;;-13.76;61.44;100689.03;4890568;28;20654;-60
2023/01/22 02:02:22;;;;;;;3.67;2.80;;;;;;;-13.71;61.07;100690.31;4880586;28;20072;-60
2023/01/22 02:04:54;;;;;;;5.35;2.58;;;;;;;-13.54;60.86;100681.72;4890879;28;20424;-60
2023/01/22 02:07:24;;;;;;;2.95;2.60;;;;;;;-13.41;60.75;100673.59;4888572;28;20884;-59
2023/01/22 02:09:55;;;;;;;3.92;2.70;;;;;;;-13.57;60.49;100677.31;4890384;28;20041;-59
2023/01/22 02:12:25;;;;;;;4.93;2.90;;;;;;;-13.58;60.73;100670.50;4891231;28;20063;-59
2023/01/22 02:14:56;;;;;;;2.67;2.30;;;;;;;-13.37;60.91;100668.94;4890093;28;20059;-59
2023/01/22 02:17:28;;;;;;;3.25;2.47;;;;;;;-13.17;60.68;100665.56;4894676;28;26175;-60
2023/01/22 02:19:59;;;;;;;2.80;2.60;;;;;;;-13.15;60.09;100664.06;4886405;28;20067;-60
2023/01/22 02:22:34;;;;;;;2.60;2.40;;;;;;;-13.15;60.49;100659.03;4894597;28;20621;-60
2023/01/22 02:25:04;;;;;;;4.70;2.70;;;;;;;-13.22;60.49;100656.75;4895086;28;20468;-59
2023/01/22 02:27:35;;;;;;;3.85;2.30;;;;;;;-13.12;60.32;100629.09;4894525;28;20052;-60
2023/01/22 02:30:07;;;;;;;3.13;2.45;;;;;;;-12.68;60.54;100652.03;4894609;28;20075;-60
2023/01/22 02:32:37;;;;;;;4.25;2.65;;;;;;;-12.38;59.29;100652.72;4892544;28;20050;-60
2023/01/22 02:35:08;;;;;;;4.05;2.40;;;;;;;-12.10;59.33;100652.41;4900414;28;20058;-60
2023/01/22 02:37:40;;;;;;;2.92;2.20;;;;;;;-11.70;58.77;100646.34;4893262;28;20181;-60
2023/01/22 02:40:12;;;;;;;2.88;2.50;;;;;;;-11.37;57.02;100662.31;4891343;28;20130;-60
2023/01/22 02:42:43;;;;;;;3.78;2.45;;;;;;;-11.39;57.24;100653.75;4892642;28;20361;-60
2023/01/22 02:45:13;;;;;;;3.35;2.45;;;;;;;-11.24;56.25;100661.59;4892127;28;20067;-60
2023/01/22 02:47:44;;;;;;;2.67;2.30;;;;;;;-11.43;56.41;100652.63;4893331;28;20041;-60
2023/01/22 02:50:14;;;;;;;4.38;2.50;;;;;;;-11.43;57.10;100651.72;4894107;28;20770;-60
2023/01/22 02:52:47;;;;;;;5.13;2.90;;;;;;;-11.44;56.58;100650.88;4893451;28;20591;-60
2023/01/22 02:55:17;;;;;;;2.40;2.20;;;;;;;-11.51;55.72;100648.63;4892819;28;20461;-60
2023/01/22 02:57:48;;;;;;;2.10;1.73;;;;;;;-11.41;56.32;100643.53;4899984;28;20821;-60
2023/01/22 03:00:19;;;;;;;3.15;1.92;;;;;;;-11.38;56.10;100636.22;4896119;28;20054;-60
2023/01/22 03:02:49;;;;;;;3.35;2.13;;;;;;;-11.56;54.62;100634.78;4893711;28;20057;-60
2023/01/22 03:05:20;;;;;;;2.35;2.15;;;;;;;-11.91;55.03;100635.47;4893398;28;20055;-59
2023/01/22 03:07:52;;;;;;;3.78;2.35;;;;;;;-12.16;55.46;100633.53;4894259;28;20067;-60
2023/01/22 03:10:24;;;;;;;3.65;2.17;;;;;;;-11.84;55.02;100642.72;4890680;28;20697;-59
2023/01/22 03:21:17;;;;;;;2.50;1.90;;;;;;;-11.07;53.14;100618.34;4877044;28;20048;-60
2023/01/22 03:23:51;;;;;;;2.22;2.03;;;;;;;-11.68;50.75;100603.59;4883229;28;20104;-60
2023/01/22 03:26:23;;;;;;;4.65;2.22;;;;;;;-12.17;51.20;100585.56;4886296;28;20052;-60
2023/01/22 03:28:53;;;;;;;2.83;2.47;;;;;;;-12.22;51.54;100633.06;4885958;28;20103;-59
2023/01/22 03:31:24;;;;;;;3.47;2.35;;;;;;;-12.54;53.59;100622.91;4885975;28;20069;-59
2023/01/22 03:33:54;;;;;;;2.53;2.33;;;;;;;-12.69;54.40;100647.72;4884970;28;20563;-59
2023/01/22 03:36:25;;;;;;;3.33;2.38;;;;;;;-13.07;55.07;100607.72;4883542;28;20053;-59
2023/01/22 03:38:57;;;;;;;2.38;2.13;;;;;;;-12.95;55.24;100632.13;4885545;28;20056;-59
2023/01/22 03:41:27;;;;;;;3.30;2.58;;;;;;;-13.22;55.82;100636.63;4892565;28;20173;-60
2023/01/22 03:44:02;;;;;;;2.70;2.38;;;;;;;-13.63;56.00;100624.00;4890232;28;20050;-60
2023/01/22 03:46:34;;;;;;;2.90;2.45;;;;;;;-13.73;56.67;100641.56;4884961;28;20171;-59
2023/01/22 03:49:04;;;;;;;2.50;2.30;;;;;;;-13.86;56.83;100656.34;4886147;28;20055;-59
2023/01/22 03:51:35;;;;;;;2.60;2.40;;;;;;;-14.31;56.03;100596.38;4887158;28;20604;-59
2023/01/22 03:54:08;;;;;;;2.83;2.63;;;;;;;-14.21;55.08;100659.16;4886024;28;20111;-59
2023/01/22 03:56:39;;;;;;;2.70;2.50;;;;;;;-14.28;55.76;100664.41;4877284;28;21117;-59
2023/01/22 03:59:10;;;;;;;2.60;2.40;;;;;;;-14.35;55.63;100652.94;4886127;28;20049;-59
2023/01/22 04:01:41;;;;;;;3.22;2.72;;;;;;;-14.28;55.29;100664.41;4886989;28;20057;-59
2023/01/22 04:04:14;;;;;;;2.53;2.30;;;;;;;-14.31;53.64;100674.19;4885396;28;20055;-59
2023/01/22 04:06:44;;;;;;;3.15;2.75;;;;;;;-14.47;53.16;100672.81;4885088;28;20694;-59
2023/01/22 04:09:18;;;;;;;3.13;2.67;;;;;;;-14.49;53.93;100656.75;4884798;28;20060;-59
2023/01/22 04:11:48;;;;;;;6.30;3.30;;;;;;;-15.05;53.78;100553.19;4878541;28;20067;-60
2023/01/22 04:14:19;;;;;;;3.25;2.60;;;;;;;-14.20;52.25;100668.44;4885876;28;20052;-59
2023/01/22 04:16:50;;;;;;;3.88;2.80;;;;;;;-14.02;53.01;100665.06;4885869;28;20049;-60
2023/01/22 04:19:21;;;;;;;2.70;2.50;;;;;;;-13.57;53.18;100662.22;4885722;28;20766;-59
2023/01/22 04:21:54;;;;;;;3.30;2.58;;;;;;;-13.15;52.01;100659.03;4885082;28;20064;-59
2023/01/22 04:24:26;;;;;;;2.72;2.45;;;;;;;-13.21;49.09;100658.50;4885328;28;20537;-59
2023/01/22 04:26:57;;;;;;;2.95;2.53;;;;;;;-13.23;51.14;100654.97;4885226;28;20059;-59
2023/01/22 04:29:27;;;;;;;3.67;2.42;;;;;;;-13.34;50.67;100665.81;4882808;28;20128;-60
2023/01/22 04:31:58;;;;;;;6.95;2.65;;;;;;;-13.94;49.85;100588.72;4890547;28;20059;-60
2023/01/22 04:34:28;;;;;;;4.95;3.05;;;;;;;-13.63;51.02;100666.72;4888120;28;20073;-60
2023/01/22 04:36:59;;;;;;;2.88;2.60;;;;;;;-13.84;51.98;100685.00;4884716;28;20187;-60
2023/01/22 04:39:31;;;;;;;4.10;2.83;;;;;;;-13.88;52.89;100686.34;4884175;28;20103;-59
2023/01/22 04:42:02;;;;;;;3.55;2.50;;;;;;;-14.67;52.63;100567.34;4884638;28;20140;-59
2023/01/22 04:44:32;;;;;;;8.88;3.00;;;;;;;-14.04;51.80;100681.63;4884895;28;20059;-59
2023/01/22 04:47:03;;;;;;;3.28;2.50;;;;;;;-14.14;52.11;100658.97;4885972;28;20057;-59
2023/01/22 04:49:34;;;;;;;7.05;2.90;;;;;;;-14.15;52.55;100683.19;4884052;28;20138;-59
2023/01/22 04:52:04;;;;;;;3.05;2.58;;;;;;;-14.29;51.92;100697.78;4884599;28;20063;-59
2023/01/22 04:54:36;;;;;;;4.13;2.80;;;;;;;-14.27;53.06;100701.31;4885109;28;20053;-59
2023/01/22 04:57:07;;;;;;;6.82;3.10;;;;;;;-14.14;52.55;100704.16;4882440;28;20042;-59
2023/01/22 04:59:38;;;;;;;3.17;2.60;;;;;;;-14.10;51.85;100696.16;4889743;28;20054;-60
2023/01/22 05:02:08;;;;;;;3.80;2.65;;;;;;;-14.20;51.71;100673.47;4883812;28;20476;-59
2023/01/22 05:04:39;;;;;;;3.60;2.90;;;;;;;-14.62;51.78;100573.66;4883367;28;20096;-60
2023/01/22 05:07:09;;;;;;;5.22;2.70;;;;;;;-13.96;52.43;100695.72;4883121;28;20053;-60
2023/01/22 05:09:42;;;;;;;3.88;2.67;;;;;;;-13.87;53.01;100697.28;4883425;28;20373;-59
2023/01/22 05:12:12;;;;;;;4.15;2.78;;;;;;;-13.88;52.95;100698.00;4884389;28;20056;-59
2023/01/22 05:14:43;;;;;;;2.55;2.35;;;;;;;-13.96;53.11;100685.66;4883145;28;20057;-59
2023/01/22 05:17:14;;;;;;;3.30;2.92;;;;;;;-14.09;53.23;100697.91;4883572;28;20136;-60
2023/01/22 05:19:44;;;;;;;5.22;2.95;;;;;;;-13.99;53.89;100709.66;4884593;28;20144;-59
2023/01/22 05:22:15;;;;;;;7.75;3.00;;;;;;;-13.94;53.96;100698.38;4884984;28;20160;-60
2023/01/22 05:24:47;;;;;;;4.20;2.83;;;;;;;-13.83;54.69;100704.31;4883720;28;20060;-59
2023/01/22 05:27:18;;;;;;;4.43;3.13;;;;;;;-13.68;54.81;100713.19;4879473;28;20058;-60
2023/01/22 05:29:48;;;;;;;3.10;2.58;;;;;;;-13.80;54.55;100712.13;4887430;28;20070;-60
2023/01/22 05:32:19;;;;;;;2.58;2.28;;;;;;;-13.99;54.14;100715.53;4885281;28;20599;-59
2023/01/22 05:34:49;;;;;;;2.90;2.50;;;;;;;-14.11;55.49;100724.50;4884987;28;20049;-59
2023/01/22 05:37:20;;;;;;;3.95;2.83;;;;;;;-14.31;54.20;100725.25;4883787;28;20361;-60
2023/01/22 05:39:52;;;;;;;7.30;2.95;;;;;;;-14.50;55.45;100727.75;4882948;28;20493;-59
2023/01/22 05:42:23;;;;;;;2.95;2.53;;;;;;;-14.70;56.63;100737.63;4883740;28;20447;-60
2023/01/22 05:44:55;;;;;;;2.72;2.53;;;;;;;-14.72;56.87;100734.09;4882989;28;20059;-59
2023/01/22 05:47:28;;;;;;;2.92;2.60;;;;;;;-14.76;57.72;100732.94;4882828;28;20056;-59
2023/01/22 05:49:59;;;;;;;3.05;2.75;;;;;;;-14.85;57.11;100740.53;4873933;28;20056;-60
2023/01/22 05:52:29;;;;;;;3.65;2.92;;;;;;;-14.93;56.93;100753.09;4883907;28;20091;-59
2023/01/22 05:55:02;;;;;;;6.05;2.80;;;;;;;-14.95;57.28;100739.53;4884078;28;20183;-59
2023/01/22 05:57:34;;;;;;;7.80;3.20;;;;;;;-14.99;57.92;100738.38;4883681;28;20685;-59
2023/01/22 06:00:07;;;;;;;4.22;3.28;;;;;;;-15.15;57.41;100752.72;4882793;28;20055;-59
2023/01/22 06:02:37;;;;;;;3.83;2.75;;;;;;;-15.15;57.74;100757.75;4881671;28;20745;-60
2023/01/22 06:05:09;;;;;;;7.57;3.22;;;;;;;-15.17;58.01;100771.75;4888443;28;20088;-59
2023/01/22 06:07:40;;;;;;;2.90;2.70;;;;;;;-15.14;58.13;100777.06;4883536;28;20477;-60
2023/01/22 06:10:12;;;;;;;5.18;2.90;;;;;;;-15.25;57.04;100759.41;4882570;28;20049;-59
2023/01/22 06:12:42;;;;;;;3.63;2.88;;;;;;;-15.29;57.46;100776.53;4884010;28;20056;-59
2023/01/22 06:15:14;;;;;;;3.10;2.55;;;;;;;-16.01;57.02;100652.06;4883976;28;20047;-59
2023/01/22 06:17:44;;;;;;;3.55;3.10;;;;;;;-15.37;56.49;100778.31;4882901;28;20056;-59
2023/01/22 06:20:15;;;;;;;4.15;3.08;;;;;;;-15.42;56.50;100774.50;4883438;28;20067;-60
2023/01/22 06:22:51;;;;;;;6.28;3.22;;;;;;;-15.24;56.58;100791.25;4884243;28;20048;-58
2023/01/22 06:25:23;;;;;;;5.38;3.05;;;;;;;-15.06;57.06;100791.19;4877067;28;20626;-58
2023/01/22 06:27:54;;;;;;;3.28;2.70;;;;;;;-15.05;57.11;100787.94;4886665;28;20045;-59
2023/01/22 06:30:25;;;;;;;3.95;3.33;;;;;;;-15.26;56.79;100787.72;4882772;28;20147;-59
2023/01/22 06:32:58;;;;;;;3.60;3.00;;;;;;;-15.35;57.92;100771.81;4883278;28;20143;-59
2023/01/22 06:35:28;;;;;;;2.88;2.65;;;;;;;-15.34;58.91;100778.59;4875439;28;20050;-60
2023/01/22 06:37:59;;;;;;;3.17;2.85;;;;;;;-15.32;58.65;100787.16;4883280;28;20057;-59
2023/01/22 06:40:32;;;;;;;4.80;3.17;;;;;;;-15.45;57.97;100796.72;4882484;28;20061;-59
2023/01/22 06:43:04;;;;;;;3.72;3.38;;;;;;;-15.54;57.85;100775.84;4883184;28;20132;-59
2023/01/22 06:45:35;;;;;;;5.32;3.00;;;;;;;-15.52;57.87;100797.78;4883783;28;20143;-59
2023/01/22 06:48:05;;;;;;;5.97;3.65;;;;;;;-15.54;58.01;100798.38;4883707;28;20060;-59
2023/01/22 06:50:36;;;;;;;5.88;3.65;;;;;;;-15.60;58.36;100802.81;4883158;28;20053;-59
2023/01/22 06:53:07;;;;;;;6.93;2.80;;;;;;;-15.61;58.60;100791.91;4883819;28;20395;-59
2023/01/22 06:55:39;;;;;;;8.35;3.42;;;;;;;-15.67;58.60;100792.22;4881304;28;20061;-59
2023/01/22 06:58:09;;;;;;;5.90;3.55;;;;;;;-15.80;58.87;100789.28;4883014;28;20046;-59
2023/01/22 07:00:40;;;;;;;7.10;3.80;;;;;;;-15.78;58.44;100797.84;4891619;28;20061;-59
2023/01/22 07:03:12;;;;;;;3.25;2.95;;;;;;;-15.88;58.37;100800.19;4886084;28;20045;-59
2023/01/22 07:05:43;;;;;;;5.43;3.45;;;;;;;-15.84;59.39;100807.28;4887087;28;20053;-59
2023/01/22 07:08:15;;;;;;;4.88;3.38;;;;;;;-16.16;59.74;100732.47;4885967;28;20057;-59
2023/01/22 07:10:47;;;;;;;4.80;3.30;;;;;;;-15.90;59.92;100781.63;4897061;28;20044;-59
2023/01/22 07:13:18;;;;;;;6.63;3.30;;;;;;;-15.96;59.48;100776.06;4897347;28;20054;-60
2023/01/22 07:15:49;;;;;;;3.15;2.92;;;;;;;-16.02;59.22;100773.84;4905553;28;20457;-59
2023/01/22 07:18:22;;;;;;;3.08;2.78;;;;;;;-16.19;58.68;100772.22;4903514;28;20799;-59
2023/01/22 07:20:53;;;;;;;3.28;2.97;;;;;;;-16.29;58.97;100779.56;4903363;28;20064;-58
2023/01/22 07:23:23;;;;;;;3.85;3.00;;;;;;;-16.36;59.16;100778.06;4902797;28;20056;-59
2023/01/22 07:25:55;;;;;;;5.55;3.47;;;;;;;-16.21;59.11;100797.81;4903837;28;20380;-58
2023/01/22 07:28:26;;;;;;;94.00;20.05;;;;;;;-16.39;59.11;100821.94;4903821;28;20059;-58
2023/01/22 07:30:56;;;;;;;143.02;32.58;;;;;;;-16.60;59.39;100828.19;4903376;28;20130;-58
2023/01/22 07:33:27;;;;;;;192.95;38.83;;;;;;;-16.78;59.92;100834.75;4900039;28;20058;-58
2023/01/22 07:35:59;;;;;;;92.15;22.45;;;;;;;-16.86;60.50;100818.13;4902765;28;20050;-58
2023/01/22 07:38:30;;;;;;;106.45;24.90;;;;;;;-16.88;61.10;100807.06;4903103;28;20067;-58
2023/01/22 07:41:04;;;;;;;17.85;7.55;;;;;;;-16.66;61.42;100820.06;4903246;28;20534;-58
2023/01/22 07:43:55;;;;;;;7.40;4.60;;;;;;;-16.62;61.23;100807.13;4890627;28;20048;-58
2023/01/22 07:46:26;;;;;;;9.52;4.90;;;;;;;-16.58;61.02;100816.72;4902755;28;20048;-58
2023/01/22 07:48:57;;;;;;;10.70;4.30;;;;;;;-16.61;61.89;100814.78;4902816;28;20066;-58
2023/01/22 07:51:27;;;;;;;5.55;3.78;;;;;;;-16.72;62.22;100795.34;4901471;28;20237;-58
2023/01/22 07:53:58;;;;;;;9.77;4.13;;;;;;;-16.66;61.89;100820.94;4905259;28;20054;-58
2023/01/22 07:56:30;;;;;;;9.75;4.03;;;;;;;-16.57;63.26;100821.88;4900801;28;20160;-59
2023/01/22 07:59:00;;;;;;;14.85;5.78;;;;;;;-16.64;63.08;100829.50;4892839;28;20044;-59
2023/01/22 08:01:32;;;;;;;18.98;7.03;;;;;;;-16.45;64.26;100836.31;4901160;28;20064;-58
2023/01/22 08:04:14;;;;;;;28.98;8.90;;;;;;;-16.94;63.50;100786.44;4901286;28;20948;-58
2023/01/22 08:09:38;;;;;;;25.23;8.48;;;;;;;-17.04;61.89;100838.03;4884047;28;20046;-59
2023/01/22 08:12:10;;;;;;;27.65;9.80;;;;;;;-17.20;62.01;100837.19;4887398;28;20056;-59
2023/01/22 08:14:41;;;;;;;12.45;5.75;;;;;;;-17.25;62.47;100838.34;4883889;28;20119;-58
2023/01/22 08:20:25;;;;;;;27.35;9.10;;;;;;;-17.59;61.90;100844.88;4858058;28;20126;-58
2023/01/22 08:22:58;;;;;;;34.88;9.90;;;;;;;-17.71;62.01;100838.63;4884402;28;20060;-57
2023/01/22 08:25:31;;;;;;;25.70;7.97;;;;;;;-17.58;63.24;100845.75;4874346;28;20055;-59
2023/01/22 08:28:08;;;;;;;9.68;3.63;;;;;;;-17.54;63.18;100798.78;4884735;28;20391;-57
2023/01/22 08:30:41;;;;;;;6.50;3.75;;;;;;;-17.37;63.32;100802.13;4876880;28;20060;-58
2023/01/22 08:33:16;;;;;;;9.90;3.60;;;;;;;-16.90;63.05;100843.53;4884290;28;20048;-58
2023/01/22 08:35:49;;;;;;;11.57;6.57;;;;;;;-17.10;62.17;100837.38;4884176;28;20057;-57
2023/01/22 08:38:25;;;;;;;12.40;5.68;;;;;;;-17.10;62.29;100844.00;4875194;28;20045;-55
2023/01/22 08:47:47;;;;;;;13.23;6.75;;;;;;;-17.59;63.53;100864.84;4863056;28;20128;-58
2023/01/22 08:50:20;;;;;;;22.17;7.75;;;;;;;-17.68;64.05;100848.91;4874567;28;20142;-58
2023/01/22 08:53:03;;;;;;;20.55;9.05;;;;;;;-17.69;64.24;100862.13;4884729;28;20053;-57
2023/01/22 08:55:45;;;;;;;24.60;8.10;;;;;;;-17.88;63.88;100850.25;4873447;28;20057;-58
2023/01/22 09:09:00;;;;;;;7.68;5.40;;;;;;;-19.83;64.67;100863.22;4768589;28;20049;-57
2023/01/22 09:11:31;;;;;;;4.75;4.20;;;;;;;-19.94;65.44;100881.03;4788014;28;20062;-58
2023/01/22 09:14:07;;;;;;;7.50;4.95;;;;;;;-20.17;66.85;100891.75;4788021;28;20051;-54
2023/01/22 09:16:38;;;;;;;5.13;4.72;;;;;;;-20.33;67.80;100874.19;4783302;28;20637;-56
2023/01/22 09:19:12;;;;;;;7.22;4.55;;;;;;;-20.90;68.36;100780.78;4789550;28;20553;-57
2023/01/22 09:21:51;;;;;;;7.25;4.43;;;;;;;-20.18;68.65;100860.16;4787855;28;20075;-58
2023/01/22 09:24:58;;;;;;;11.75;4.95;;;;;;;-19.52;70.52;100879.06;4778263;28;20047;-57
2023/01/22 09:27:37;;;;;;;6.55;5.22;;;;;;;-19.61;69.23;100834.13;4775335;28;20051;-56
2023/01/22 09:30:10;;;;;;;5.80;5.28;;;;;;;-20.05;68.92;100733.97;4781206;28;20063;-57
2023/01/22 09:32:41;;;;;;;11.57;7.05;;;;;;;-19.63;68.19;100871.28;4820471;28;20058;-57
2023/01/22 09:35:13;;;;;;;8.23;6.00;;;;;;;-19.98;67.95;100844.09;4844337;28;20598;-55
2023/01/22 09:37:46;;;;;;;7.55;5.97;;;;;;;-20.23;68.00;100836.38;4842093;28;20057;-57
2023/01/22 09:40:26;;;;;;;8.98;6.18;;;;;;;-20.07;68.19;100884.59;4881507;28;20148;-55
2023/01/22 09:43:05;;;;;;;5.13;4.63;;;;;;;-20.24;68.43;100900.13;4873215;28;20077;-56
2023/01/22 09:45:43;;;;;;;12.57;6.45;;;;;;;-21.36;68.50;100768.06;4873652;28;20281;-55
2023/01/22 09:48:19;;;;;;;36.30;14.02;;;;;;;-20.90;70.04;100875.16;4873894;28;20796;-56
2023/01/22 09:50:51;;;;;;;34.97;11.50;;;;;;;-20.74;70.43;100901.75;4873353;28;20045;-55
2023/01/22 09:53:24;;;;;;;37.72;13.93;;;;;;;-20.51;70.85;100901.94;4882976;28;20153;-56
2023/01/22 09:55:57;;;;;;;21.75;11.50;;;;;;;-20.62;70.44;100882.44;4884171;28;20455;-55
2023/01/22 09:58:36;;;;;;;20.85;11.73;;;;;;;-20.68;69.61;100898.41;4880556;28;20062;-54
2023/01/22 10:01:09;;;;;;;6.28;5.60;;;;;;;-20.90;69.99;100895.00;4880245;28;20143;-56
2023/01/22 10:03:45;;;;;;;4.82;4.45;;;;;;;-21.01;70.63;100910.28;4882901;28;20057;-56
2023/01/22 10:06:21;;;;;;;4.82;4.43;;;;;;;-20.96;71.59;100908.34;4883254;28;20106;-55
2023/01/22 10:09:01;;;;;;;5.22;4.75;;;;;;;-20.97;71.40;100897.50;4873179;28;20234;-55
2023/01/22 10:11:32;;;;;;;;;;;;;;;-20.64;71.95;100914.53;4873220;28;20145;-57
2023/01/22 10:14:09;;;;;;;5.65;4.85;;;;;;;-20.53;71.67;100916.66;4883458;28;19928;-55
2023/01/22 10:16:41;;;;;;;23.60;4.50;;;;;;;-20.43;71.41;100920.22;4872355;28;20057;-57
2023/01/22 10:19:21;;;;;;;4.68;4.07;;;;;;;-20.40;71.29;100915.56;4884410;28;20053;-56
2023/01/22 10:21:59;;;;;;;6.78;4.53;;;;;;;-20.66;70.32;100925.91;4872988;28;20073;-54
2023/01/22 10:24:31;;;;;;;4.75;4.45;;;;;;;-20.93;71.55;100919.50;4872869;28;20173;-56
2023/01/22 10:27:12;;;;;;;4.50;4.20;;;;;;;-20.78;72.35;100924.50;4882419;28;20721;-56
2023/01/22 10:29:47;;;;;;;5.20;4.80;;;;;;;-20.81;72.08;100914.16;4873045;28;20053;-57
2023/01/22 10:32:22;;;;;;;4.45;4.10;;;;;;;-20.36;73.42;100930.13;4880372;28;20104;-56
2023/01/22 10:35:03;;;;;;;5.53;4.97;;;;;;;-20.29;71.95;100935.09;4882960;28;20123;-56
2023/01/22 10:37:46;;;;;;;5.22;4.63;;;;;;;-20.38;71.12;100929.97;4875525;28;20152;-55
2023/01/22 10:40:25;;;;;;;5.07;4.57;;;;;;;-20.24;71.85;100938.97;4876035;28;20057;-57
2023/01/22 10:43:08;;;;;;;9.15;6.78;;;;;;;-20.20;71.66;100946.09;4877240;28;20056;-56
2023/01/22 10:45:53;;;;;;;7.75;6.03;;;;;;;-20.23;71.02;100936.69;4875826;28;20057;-56
2023/01/22 10:48:27;;;;;;;8.73;5.65;;;;;;;-20.33;71.20;100947.88;4875989;28;20109;-57
2023/01/22 10:51:12;;;;;;;12.13;6.55;;;;;;;-20.55;71.12;100915.59;4881495;28;20536;-56
2023/01/22 10:53:58;;;;;;;10.38;6.43;;;;;;;-20.34;71.10;100951.06;4875812;28;20053;-55
2023/01/22 10:56:35;;;;;;;7.20;5.50;;;;;;;-20.12;72.41;100952.81;4875223;28;20467;-57
2023/01/22 10:59:22;;;;;;;9.15;4.47;;;;;;;-19.96;72.02;100937.16;4887516;28;20139;-56
2023/01/22 11:02:00;;;;;;;6.93;4.93;;;;;;;-19.76;71.58;100937.84;4875072;28;20588;-56
2023/01/22 11:04:33;;;;;;;9.77;5.47;;;;;;;-19.79;70.60;100962.34;4875059;28;20138;-57
2023/01/22 11:07:09;;;;;;;9.90;6.35;;;;;;;-19.91;70.63;100961.88;4885639;28;20060;-57
2023/01/22 11:09:46;;;;;;;9.95;5.93;;;;;;;-19.97;70.67;100975.19;4879409;28;20067;-57
2023/01/22 11:12:21;;;;;;;5.07;4.00;;;;;;;-19.73;71.59;100975.50;4902961;28;20056;-57
2023/01/22 11:15:01;;;;;;;4.43;4.13;;;;;;;-19.88;70.72;100986.19;4892160;28;20041;-55
2023/01/22 11:17:39;;;;;;;4.63;4.32;;;;;;;-20.12;70.61;100980.19;4893467;28;20060;-57
2023/01/22 11:20:22;;;;;;;4.43;4.13;;;;;;;-20.23;70.67;100990.50;4894653;28;20052;-57
2023/01/22 11:23:14;;;;;;;8.18;4.88;;;;;;;-20.32;70.60;100989.41;4893551;28;20052;-56
2023/01/22 11:25:58;;;;;;;5.28;4.45;;;;;;;-20.69;71.56;100940.44;4892596;28;20059;-56
2023/01/22 11:28:42;;;;;;;4.82;4.43;;;;;;;-20.47;71.51;100994.38;4891938;28;20088;-56
2023/01/22 11:31:27;;;;;;;4.20;4.00;;;;;;;-20.40;72.00;101000.06;4893521;28;20059;-55
2023/01/22 11:34:27;;;;;;;6.05;4.28;;;;;;;-20.72;72.03;100917.75;4887711;28;20069;-56
2023/01/22 11:37:06;;;;;;;6.07;5.47;;;;;;;-20.22;72.37;100987.28;4886242;28;20502;-55
2023/01/22 11:39:56;;;;;;;9.07;5.72;;;;;;;-19.93;72.42;100987.28;4899456;28;20061;-57
2023/01/22 11:42:47;;;;;;;5.72;5.28;;;;;;;-19.84;71.88;101003.22;4893289;28;20541;-55
2023/01/22 11:45:37;;;;;;;11.50;5.68;;;;;;;-20.00;71.30;100969.88;4889082;28;20061;-56
2023/01/22 11:48:31;;;;;;;3.90;3.60;;;;;;;-19.77;71.41;100995.75;4886499;28;20035;-56
2023/01/22 11:51:27;;;;;;;5.80;5.28;;;;;;;-19.77;71.36;101005.72;4892408;28;20145;-54
2023/01/22 11:54:22;;;;;;;7.65;5.43;;;;;;;-19.73;71.13;101007.84;4886978;28;20056;-56
2023/01/22 11:57:10;;;;;;;5.35;4.85;;;;;;;-19.81;71.33;100979.63;4891543;28;20071;-56
2023/01/22 11:59:58;;;;;;;7.97;5.80;;;;;;;-19.73;70.62;101002.88;4891021;28;20070;-56
2023/01/22 12:02:48;;;;;;;4.53;4.22;;;;;;;-19.81;69.99;101008.59;4891929;28;20064;-56
2023/01/22 12:05:32;;;;;;;6.57;4.53;;;;;;;-20.15;69.90;101019.63;4891872;28;20049;-55
2023/01/22 12:08:27;;;;;;;5.32;4.85;;;;;;;-20.49;70.30;100961.03;4892697;28;20060;-57
2023/01/22 12:11:16;;;;;;;5.13;4.65;;;;;;;-20.13;70.64;101020.69;4882776;28;20437;-57
2023/01/22 12:14:15;;;;;;;5.75;5.22;;;;;;;-20.29;70.61;101035.44;4890741;28;20042;-55
2023/01/22 12:16:56;;;;;;;10.35;6.38;;;;;;;-20.48;70.14;101024.91;4888182;28;20072;-55
2023/01/22 12:20:03;;;;;;;7.05;6.35;;;;;;;-20.90;70.05;100983.53;4890312;28;20306;-56
2023/01/22 12:22:41;;;;;;;9.68;6.72;;;;;;;-20.61;70.74;101039.16;4891443;28;20056;-55